sensor_id;sensor_type;location;lat;lon;timestamp;P1;durP1;ratioP1;P2;durP2;ratioP2
77324;SDS011;66387;53.440;10.390;2023-07-13T00:01:46;5.40;;;2.78;;
77324;SDS011;66387;53.440;10.390;2023-07-13T00:04:14;2.85;;;2.42;;
77324;SDS011;66387;53.440;10.390;2023-07-13T00:06:39;3.40;;;2.33;;
77324;SDS011;66387;53.440;10.390;2023-07-13T00:09:05;4.90;;;2.50;;
77324;SDS011;66387;53.440;10.390;2023-07-13T00:11:30;6.22;;;2.55;;
77324;SDS011;66387;53.440;10.390;2023-07-13T00:13:57;3.25;;;2.08;;
77324;SDS011;66387;53.440;10.390;2023-07-13T00:16:22;4.33;;;2.63;;
77324;SDS011;66387;53.440;10.390;2023-07-13T00:18:47;6.43;;;3.43;;
77324;SDS011;66387;53.440;10.390;2023-07-13T00:21:13;6.27;;;2.10;;
77324;SDS011;66387;53.440;10.390;2023-07-13T00:23:39;4.07;;;2.13;;
77324;SDS011;66387;53.440;10.390;2023-07-13T00:26:06;3.30;;;1.88;;
77324;SDS011;66387;53.440;10.390;2023-07-13T00:28:33;3.85;;;2.15;;
77324;SDS011;66387;53.440;10.390;2023-07-13T00:30:59;5.40;;;2.60;;
77324;SDS011;66387;53.440;10.390;2023-07-13T00:33:24;3.60;;;2.45;;
77324;SDS011;66387;53.440;10.390;2023-07-13T00:35:50;5.63;;;2.22;;
77324;SDS011;66387;53.440;10.390;2023-07-13T00:38:15;6.03;;;1.92;;
77324;SDS011;66387;53.440;10.390;2023-07-13T00:40:41;3.50;;;2.25;;
77324;SDS011;66387;53.440;10.390;2023-07-13T00:43:12;4.07;;;2.20;;
77324;SDS011;66387;53.440;10.390;2023-07-13T00:48:08;5.35;;;2.40;;
77324;SDS011;66387;53.440;10.390;2023-07-13T00:50:33;3.72;;;2.15;;
77324;SDS011;66387;53.440;10.390;2023-07-13T00:52:59;5.90;;;2.50;;
77324;SDS011;66387;53.440;10.390;2023-07-13T00:55:24;2.92;;;1.92;;
77324;SDS011;66387;53.440;10.390;2023-07-13T00:57:49;3.67;;;1.77;;
77324;SDS011;66387;53.440;10.390;2023-07-13T01:00:15;3.22;;;2.08;;
77324;SDS011;66387;53.440;10.390;2023-07-13T01:02:42;5.68;;;1.95;;
77324;SDS011;66387;53.440;10.390;2023-07-13T01:05:14;4.22;;;2.30;;
77324;SDS011;66387;53.440;10.390;2023-07-13T01:07:42;3.55;;;2.03;;
77324;SDS011;66387;53.440;10.390;2023-07-13T01:10:09;5.32;;;2.42;;
77324;SDS011;66387;53.440;10.390;2023-07-13T01:12:36;4.82;;;2.10;;
77324;SDS011;66387;53.440;10.390;2023-07-13T01:15:01;4.43;;;2.20;;
77324;SDS011;66387;53.440;10.390;2023-07-13T01:17:28;4.22;;;2.63;;
77324;SDS011;66387;53.440;10.390;2023-07-13T01:19:53;3.78;;;2.33;;
77324;SDS011;66387;53.440;10.390;2023-07-13T01:22:19;4.78;;;2.70;;
77324;SDS011;66387;53.440;10.390;2023-07-13T01:24:50;5.40;;;3.85;;
77324;SDS011;66387;53.440;10.390;2023-07-13T01:27:17;4.80;;;2.50;;
77324;SDS011;66387;53.440;10.390;2023-07-13T01:29:45;5.32;;;2.63;;
77324;SDS011;66387;53.440;10.390;2023-07-13T01:32:14;6.10;;;3.15;;
77324;SDS011;66387;53.440;10.390;2023-07-13T01:34:48;5.22;;;3.22;;
77324;SDS011;66387;53.440;10.390;2023-07-13T01:37:14;6.63;;;3.38;;
77324;SDS011;66387;53.440;10.390;2023-07-13T01:39:40;6.18;;;3.53;;
77324;SDS011;66387;53.440;10.390;2023-07-13T01:42:05;5.50;;;4.00;;
77324;SDS011;66387;53.440;10.390;2023-07-13T01:44:31;5.20;;;3.78;;
77324;SDS011;66387;53.440;10.390;2023-07-13T01:46:56;6.40;;;3.80;;
77324;SDS011;66387;53.440;10.390;2023-07-13T01:49:22;7.07;;;3.72;;
77324;SDS011;66387;53.440;10.390;2023-07-13T01:51:47;4.80;;;4.30;;
77324;SDS011;66387;53.440;10.390;2023-07-13T01:54:13;7.20;;;4.33;;
77324;SDS011;66387;53.440;10.390;2023-07-13T01:56:38;7.73;;;3.40;;
77324;SDS011;66387;53.440;10.390;2023-07-13T01:59:04;5.10;;;3.92;;
77324;SDS011;66387;53.440;10.390;2023-07-13T02:01:30;5.93;;;4.50;;
77324;SDS011;66387;53.440;10.390;2023-07-13T02:03:55;5.97;;;4.03;;
77324;SDS011;66387;53.440;10.390;2023-07-13T02:06:20;6.57;;;3.90;;
77324;SDS011;66387;53.440;10.390;2023-07-13T02:08:46;7.77;;;5.00;;
77324;SDS011;66387;53.440;10.390;2023-07-13T02:11:11;6.82;;;4.32;;
77324;SDS011;66387;53.440;10.390;2023-07-13T02:13:36;4.30;;;3.80;;
77324;SDS011;66387;53.440;10.390;2023-07-13T02:16:02;9.23;;;5.87;;
77324;SDS011;66387;53.440;10.390;2023-07-13T02:18:27;10.23;;;5.03;;
77324;SDS011;66387;53.440;10.390;2023-07-13T02:20:52;7.43;;;5.10;;
77324;SDS011;66387;53.440;10.390;2023-07-13T02:23:18;6.85;;;4.63;;
77324;SDS011;66387;53.440;10.390;2023-07-13T02:25:43;5.72;;;4.72;;
77324;SDS011;66387;53.440;10.390;2023-07-13T02:28:08;6.57;;;4.77;;
77324;SDS011;66387;53.440;10.390;2023-07-13T02:30:34;5.43;;;4.83;;
77324;SDS011;66387;53.440;10.390;2023-07-13T02:33:00;4.68;;;4.10;;
77324;SDS011;66387;53.440;10.390;2023-07-13T02:35:25;7.07;;;4.63;;
77324;SDS011;66387;53.440;10.390;2023-07-13T02:37:51;7.87;;;4.40;;
77324;SDS011;66387;53.440;10.390;2023-07-13T02:40:16;6.82;;;4.95;;
77324;SDS011;66387;53.440;10.390;2023-07-13T02:42:42;5.18;;;4.63;;
77324;SDS011;66387;53.440;10.390;2023-07-13T02:45:07;4.80;;;4.30;;
77324;SDS011;66387;53.440;10.390;2023-07-13T02:47:33;4.88;;;4.32;;
77324;SDS011;66387;53.440;10.390;2023-07-13T02:49:59;6.82;;;4.70;;
77324;SDS011;66387;53.440;10.390;2023-07-13T02:52:25;6.70;;;4.60;;
77324;SDS011;66387;53.440;10.390;2023-07-13T02:54:50;7.43;;;5.43;;
77324;SDS011;66387;53.440;10.390;2023-07-13T02:57:16;5.50;;;4.50;;
77324;SDS011;66387;53.440;10.390;2023-07-13T02:59:41;6.07;;;4.67;;
77324;SDS011;66387;53.440;10.390;2023-07-13T03:02:06;5.13;;;4.05;;
77324;SDS011;66387;53.440;10.390;2023-07-13T03:04:31;5.43;;;4.10;;
77324;SDS011;66387;53.440;10.390;2023-07-13T03:06:57;6.10;;;4.40;;
77324;SDS011;66387;53.440;10.390;2023-07-13T03:09:23;5.82;;;4.20;;
77324;SDS011;66387;53.440;10.390;2023-07-13T03:11:49;5.57;;;4.20;;
77324;SDS011;66387;53.440;10.390;2023-07-13T03:14:14;5.57;;;4.60;;
77324;SDS011;66387;53.440;10.390;2023-07-13T03:16:39;7.03;;;4.47;;
77324;SDS011;66387;53.440;10.390;2023-07-13T03:19:05;5.90;;;4.10;;
77324;SDS011;66387;53.440;10.390;2023-07-13T03:21:30;5.17;;;4.10;;
77324;SDS011;66387;53.440;10.390;2023-07-13T03:23:56;5.20;;;4.07;;
77324;SDS011;66387;53.440;10.390;2023-07-13T03:26:21;8.63;;;3.97;;
77324;SDS011;66387;53.440;10.390;2023-07-13T03:28:47;4.40;;;4.00;;
77324;SDS011;66387;53.440;10.390;2023-07-13T03:31:14;11.48;;;5.20;;
77324;SDS011;66387;53.440;10.390;2023-07-13T03:33:42;5.93;;;4.13;;
77324;SDS011;66387;53.440;10.390;2023-07-13T03:36:10;5.28;;;4.00;;
77324;SDS011;66387;53.440;10.390;2023-07-13T03:38:38;5.55;;;4.50;;
77324;SDS011;66387;53.440;10.390;2023-07-13T03:41:03;5.47;;;4.17;;
77324;SDS011;66387;53.440;10.390;2023-07-13T03:43:28;5.53;;;4.10;;
77324;SDS011;66387;53.440;10.390;2023-07-13T03:45:54;5.93;;;4.40;;
77324;SDS011;66387;53.440;10.390;2023-07-13T03:48:20;5.43;;;4.70;;
77324;SDS011;66387;53.440;10.390;2023-07-13T03:50:45;4.80;;;4.17;;
77324;SDS011;66387;53.440;10.390;2023-07-13T03:53:12;8.38;;;4.45;;
77324;SDS011;66387;53.440;10.390;2023-07-13T03:55:37;5.43;;;3.87;;
77324;SDS011;66387;53.440;10.390;2023-07-13T03:58:22;5.33;;;4.17;;
77324;SDS011;66387;53.440;10.390;2023-07-13T04:00:51;6.40;;;3.85;;
77324;SDS011;66387;53.440;10.390;2023-07-13T04:03:17;5.07;;;4.00;;
77324;SDS011;66387;53.440;10.390;2023-07-13T04:05:42;5.07;;;3.77;;
77324;SDS011;66387;53.440;10.390;2023-07-13T04:08:07;6.10;;;4.35;;
77324;SDS011;66387;53.440;10.390;2023-07-13T04:10:33;4.70;;;3.93;;
77324;SDS011;66387;53.440;10.390;2023-07-13T04:12:58;5.40;;;4.00;;
77324;SDS011;66387;53.440;10.390;2023-07-13T04:15:23;8.13;;;4.47;;
77324;SDS011;66387;53.440;10.390;2023-07-13T04:17:48;5.80;;;4.50;;
77324;SDS011;66387;53.440;10.390;2023-07-13T04:20:14;5.97;;;5.37;;
77324;SDS011;66387;53.440;10.390;2023-07-13T04:22:39;5.10;;;3.97;;
77324;SDS011;66387;53.440;10.390;2023-07-13T04:25:04;4.60;;;3.93;;
77324;SDS011;66387;53.440;10.390;2023-07-13T04:27:30;7.10;;;4.45;;
77324;SDS011;66387;53.440;10.390;2023-07-13T04:29:55;5.68;;;4.60;;
77324;SDS011;66387;53.440;10.390;2023-07-13T04:32:21;5.67;;;4.10;;
77324;SDS011;66387;53.440;10.390;2023-07-13T04:34:46;5.37;;;4.23;;
77324;SDS011;66387;53.440;10.390;2023-07-13T04:37:11;5.97;;;4.43;;
77324;SDS011;66387;53.440;10.390;2023-07-13T04:39:36;5.83;;;4.33;;
77324;SDS011;66387;53.440;10.390;2023-07-13T04:42:02;6.20;;;4.95;;
77324;SDS011;66387;53.440;10.390;2023-07-13T04:44:28;5.20;;;4.60;;
77324;SDS011;66387;53.440;10.390;2023-07-13T04:46:53;7.97;;;4.80;;
77324;SDS011;66387;53.440;10.390;2023-07-13T04:49:18;8.33;;;4.30;;
77324;SDS011;66387;53.440;10.390;2023-07-13T04:51:44;5.13;;;4.17;;
77324;SDS011;66387;53.440;10.390;2023-07-13T04:54:09;5.67;;;4.40;;
77324;SDS011;66387;53.440;10.390;2023-07-13T04:56:34;9.47;;;4.57;;
77324;SDS011;66387;53.440;10.390;2023-07-13T04:58:59;8.97;;;4.50;;
77324;SDS011;66387;53.440;10.390;2023-07-13T05:01:24;4.97;;;4.30;;
77324;SDS011;66387;53.440;10.390;2023-07-13T05:03:50;7.33;;;5.70;;
77324;SDS011;66387;53.440;10.390;2023-07-13T05:06:15;6.75;;;4.80;;
77324;SDS011;66387;53.440;10.390;2023-07-13T05:08:40;11.30;;;5.90;;
77324;SDS011;66387;53.440;10.390;2023-07-13T05:11:06;5.80;;;4.67;;
77324;SDS011;66387;53.440;10.390;2023-07-13T05:13:32;6.53;;;4.78;;
77324;SDS011;66387;53.440;10.390;2023-07-13T05:15:58;7.38;;;4.85;;
77324;SDS011;66387;53.440;10.390;2023-07-13T05:18:28;6.32;;;4.70;;
77324;SDS011;66387;53.440;10.390;2023-07-13T05:20:56;9.25;;;5.68;;
77324;SDS011;66387;53.440;10.390;2023-07-13T05:23:26;6.20;;;4.50;;
77324;SDS011;66387;53.440;10.390;2023-07-13T05:25:52;5.25;;;4.72;;
77324;SDS011;66387;53.440;10.390;2023-07-13T05:28:17;6.03;;;5.30;;
77324;SDS011;66387;53.440;10.390;2023-07-13T05:30:49;7.43;;;5.73;;
77324;SDS011;66387;53.440;10.390;2023-07-13T05:33:15;10.07;;;5.60;;
77324;SDS011;66387;53.440;10.390;2023-07-13T05:35:40;6.18;;;4.82;;
77324;SDS011;66387;53.440;10.390;2023-07-13T05:38:06;9.77;;;4.70;;
77324;SDS011;66387;53.440;10.390;2023-07-13T05:40:31;7.13;;;4.97;;
77324;SDS011;66387;53.440;10.390;2023-07-13T05:42:56;8.05;;;4.70;;
77324;SDS011;66387;53.440;10.390;2023-07-13T05:45:22;7.50;;;4.88;;
77324;SDS011;66387;53.440;10.390;2023-07-13T05:47:47;7.57;;;4.23;;
77324;SDS011;66387;53.440;10.390;2023-07-13T05:50:12;5.13;;;4.03;;
77324;SDS011;66387;53.440;10.390;2023-07-13T05:52:38;7.53;;;4.00;;
77324;SDS011;66387;53.440;10.390;2023-07-13T05:55:03;6.93;;;4.17;;
77324;SDS011;66387;53.440;10.390;2023-07-13T05:57:29;7.20;;;3.83;;
77324;SDS011;66387;53.440;10.390;2023-07-13T05:59:55;6.05;;;3.90;;
77324;SDS011;66387;53.440;10.390;2023-07-13T06:02:20;4.73;;;3.40;;
77324;SDS011;66387;53.440;10.390;2023-07-13T06:04:46;8.60;;;3.40;;
77324;SDS011;66387;53.440;10.390;2023-07-13T06:07:11;6.00;;;3.17;;
77324;SDS011;66387;53.440;10.390;2023-07-13T06:09:36;4.40;;;3.53;;
77324;SDS011;66387;53.440;10.390;2023-07-13T06:12:01;6.00;;;3.20;;
77324;SDS011;66387;53.440;10.390;2023-07-13T06:14:27;6.55;;;2.95;;
77324;SDS011;66387;53.440;10.390;2023-07-13T06:16:52;4.90;;;3.27;;
77324;SDS011;66387;53.440;10.390;2023-07-13T06:19:17;5.40;;;3.27;;
77324;SDS011;66387;53.440;10.390;2023-07-13T06:21:43;9.97;;;3.30;;
77324;SDS011;66387;53.440;10.390;2023-07-13T06:24:08;6.57;;;3.63;;
77324;SDS011;66387;53.440;10.390;2023-07-13T06:26:33;5.43;;;2.92;;
77324;SDS011;66387;53.440;10.390;2023-07-13T06:28:59;6.53;;;2.80;;
77324;SDS011;66387;53.440;10.390;2023-07-13T06:31:24;7.47;;;3.20;;
77324;SDS011;66387;53.440;10.390;2023-07-13T06:33:49;7.87;;;3.90;;
77324;SDS011;66387;53.440;10.390;2023-07-13T06:36:14;10.53;;;3.87;;
77324;SDS011;66387;53.440;10.390;2023-07-13T06:38:40;11.73;;;3.15;;
77324;SDS011;66387;53.440;10.390;2023-07-13T06:41:06;8.50;;;3.00;;
77324;SDS011;66387;53.440;10.390;2023-07-13T06:43:32;9.45;;;4.38;;
77324;SDS011;66387;53.440;10.390;2023-07-13T06:45:58;11.82;;;3.83;;
77324;SDS011;66387;53.440;10.390;2023-07-13T06:48:23;8.32;;;3.20;;
77324;SDS011;66387;53.440;10.390;2023-07-13T06:50:49;7.50;;;3.03;;
77324;SDS011;66387;53.440;10.390;2023-07-13T06:53:17;11.45;;;3.40;;
77324;SDS011;66387;53.440;10.390;2023-07-13T06:55:43;11.15;;;3.53;;
77324;SDS011;66387;53.440;10.390;2023-07-13T06:58:08;7.15;;;3.13;;
77324;SDS011;66387;53.440;10.390;2023-07-13T07:00:34;8.77;;;2.93;;
77324;SDS011;66387;53.440;10.390;2023-07-13T07:02:59;5.20;;;2.67;;
77324;SDS011;66387;53.440;10.390;2023-07-13T07:05:24;6.80;;;3.30;;
77324;SDS011;66387;53.440;10.390;2023-07-13T07:07:50;6.47;;;2.60;;
77324;SDS011;66387;53.440;10.390;2023-07-13T07:10:17;7.95;;;2.75;;
77324;SDS011;66387;53.440;10.390;2023-07-13T07:12:43;7.18;;;3.08;;
77324;SDS011;66387;53.440;10.390;2023-07-13T07:15:08;6.03;;;3.00;;
77324;SDS011;66387;53.440;10.390;2023-07-13T07:17:33;6.32;;;2.53;;
77324;SDS011;66387;53.440;10.390;2023-07-13T07:19:59;9.43;;;3.10;;
77324;SDS011;66387;53.440;10.390;2023-07-13T07:22:24;5.68;;;2.80;;
77324;SDS011;66387;53.440;10.390;2023-07-13T07:24:52;7.75;;;2.28;;
77324;SDS011;66387;53.440;10.390;2023-07-13T07:27:17;7.43;;;2.65;;
77324;SDS011;66387;53.440;10.390;2023-07-13T07:29:42;6.37;;;2.63;;
77324;SDS011;66387;53.440;10.390;2023-07-13T07:32:08;10.50;;;3.10;;
77324;SDS011;66387;53.440;10.390;2023-07-13T07:34:33;7.87;;;2.40;;
77324;SDS011;66387;53.440;10.390;2023-07-13T07:36:59;8.13;;;2.50;;
77324;SDS011;66387;53.440;10.390;2023-07-13T07:39:28;7.65;;;2.63;;
77324;SDS011;66387;53.440;10.390;2023-07-13T07:41:53;6.72;;;2.25;;
77324;SDS011;66387;53.440;10.390;2023-07-13T07:44:19;3.53;;;2.00;;
77324;SDS011;66387;53.440;10.390;2023-07-13T07:46:44;5.87;;;2.77;;
77324;SDS011;66387;53.440;10.390;2023-07-13T07:49:09;6.47;;;2.50;;
77324;SDS011;66387;53.440;10.390;2023-07-13T07:51:35;6.28;;;2.97;;
77324;SDS011;66387;53.440;10.390;2023-07-13T07:54:01;9.32;;;3.80;;
77324;SDS011;66387;53.440;10.390;2023-07-13T07:56:26;5.33;;;2.23;;
77324;SDS011;66387;53.440;10.390;2023-07-13T07:58:51;5.83;;;2.70;;
77324;SDS011;66387;53.440;10.390;2023-07-13T08:01:17;6.78;;;2.40;;
77324;SDS011;66387;53.440;10.390;2023-07-13T08:03:42;4.75;;;2.10;;
77324;SDS011;66387;53.440;10.390;2023-07-13T08:06:07;9.03;;;2.30;;
77324;SDS011;66387;53.440;10.390;2023-07-13T08:08:33;5.40;;;2.33;;
77324;SDS011;66387;53.440;10.390;2023-07-13T08:11:02;6.18;;;2.78;;
77324;SDS011;66387;53.440;10.390;2023-07-13T08:13:28;7.40;;;2.53;;
77324;SDS011;66387;53.440;10.390;2023-07-13T08:15:55;6.28;;;3.25;;
77324;SDS011;66387;53.440;10.390;2023-07-13T08:18:20;5.73;;;2.30;;
77324;SDS011;66387;53.440;10.390;2023-07-13T08:20:45;5.60;;;3.28;;
77324;SDS011;66387;53.440;10.390;2023-07-13T08:23:11;8.03;;;2.73;;
77324;SDS011;66387;53.440;10.390;2023-07-13T08:25:36;8.00;;;2.65;;
77324;SDS011;66387;53.440;10.390;2023-07-13T08:28:02;5.40;;;2.50;;
77324;SDS011;66387;53.440;10.390;2023-07-13T08:30:28;6.35;;;2.63;;
77324;SDS011;66387;53.440;10.390;2023-07-13T08:32:53;5.63;;;2.78;;
77324;SDS011;66387;53.440;10.390;2023-07-13T08:35:18;6.53;;;3.20;;
77324;SDS011;66387;53.440;10.390;2023-07-13T08:37:44;5.90;;;2.40;;
77324;SDS011;66387;53.440;10.390;2023-07-13T08:40:10;5.50;;;2.90;;
77324;SDS011;66387;53.440;10.390;2023-07-13T08:42:36;7.07;;;2.72;;
77324;SDS011;66387;53.440;10.390;2023-07-13T08:47:57;4.40;;;2.78;;
77324;SDS011;66387;53.440;10.390;2023-07-13T08:50:49;6.10;;;2.08;;
77324;SDS011;66387;53.440;10.390;2023-07-13T08:53:20;5.22;;;2.25;;
77324;SDS011;66387;53.440;10.390;2023-07-13T08:55:48;3.55;;;2.55;;
77324;SDS011;66387;53.440;10.390;2023-07-13T08:58:22;5.88;;;2.55;;
77324;SDS011;66387;53.440;10.390;2023-07-13T09:03:41;4.95;;;2.30;;
77324;SDS011;66387;53.440;10.390;2023-07-13T09:06:13;7.70;;;2.72;;
77324;SDS011;66387;53.440;10.390;2023-07-13T09:08:52;4.63;;;2.33;;
77324;SDS011;66387;53.440;10.390;2023-07-13T09:14:25;5.70;;;2.17;;
77324;SDS011;66387;53.440;10.390;2023-07-13T09:16:58;5.75;;;2.10;;
77324;SDS011;66387;53.440;10.390;2023-07-13T09:19:28;4.90;;;2.00;;
77324;SDS011;66387;53.440;10.390;2023-07-13T09:21:57;4.63;;;2.20;;
77324;SDS011;66387;53.440;10.390;2023-07-13T09:26:58;4.95;;;2.33;;
77324;SDS011;66387;53.440;10.390;2023-07-13T09:29:28;6.03;;;2.55;;
77324;SDS011;66387;53.440;10.390;2023-07-13T09:34:26;7.35;;;2.58;;
77324;SDS011;66387;53.440;10.390;2023-07-13T09:36:55;4.93;;;1.90;;
77324;SDS011;66387;53.440;10.390;2023-07-13T09:42:20;6.03;;;2.50;;
77324;SDS011;66387;53.440;10.390;2023-07-13T09:44:51;4.75;;;1.98;;
77324;SDS011;66387;53.440;10.390;2023-07-13T09:47:20;3.28;;;2.22;;
77324;SDS011;66387;53.440;10.390;2023-07-13T09:49:54;9.10;;;2.50;;
77324;SDS011;66387;53.440;10.390;2023-07-13T09:52:23;3.75;;;2.30;;
77324;SDS011;66387;53.440;10.390;2023-07-13T09:54:50;4.43;;;1.80;;
77324;SDS011;66387;53.440;10.390;2023-07-13T09:57:18;3.72;;;2.42;;
77324;SDS011;66387;53.440;10.390;2023-07-13T09:59:48;4.22;;;2.20;;
77324;SDS011;66387;53.440;10.390;2023-07-13T10:02:23;4.65;;;2.97;;
77324;SDS011;66387;53.440;10.390;2023-07-13T10:05:00;5.88;;;1.95;;
77324;SDS011;66387;53.440;10.390;2023-07-13T10:07:25;9.95;;;3.65;;
77324;SDS011;66387;53.440;10.390;2023-07-13T10:09:52;3.80;;;2.35;;
77324;SDS011;66387;53.440;10.390;2023-07-13T10:12:20;8.18;;;2.78;;
77324;SDS011;66387;53.440;10.390;2023-07-13T10:14:48;6.57;;;3.03;;
77324;SDS011;66387;53.440;10.390;2023-07-13T10:17:15;5.20;;;2.42;;
77324;SDS011;66387;53.440;10.390;2023-07-13T10:19:50;3.28;;;2.30;;
77324;SDS011;66387;53.440;10.390;2023-07-13T10:22:27;4.47;;;2.30;;
77324;SDS011;66387;53.440;10.390;2023-07-13T10:25:15;4.85;;;2.33;;
77324;SDS011;66387;53.440;10.390;2023-07-13T10:27:43;4.35;;;2.53;;
77324;SDS011;66387;53.440;10.390;2023-07-13T10:30:12;4.47;;;2.95;;
77324;SDS011;66387;53.440;10.390;2023-07-13T10:32:50;3.85;;;2.40;;
77324;SDS011;66387;53.440;10.390;2023-07-13T10:35:17;6.60;;;2.97;;
77324;SDS011;66387;53.440;10.390;2023-07-13T10:40:42;3.80;;;2.13;;
77324;SDS011;66387;53.440;10.390;2023-07-13T10:43:32;3.97;;;2.78;;
77324;SDS011;66387;53.440;10.390;2023-07-13T10:46:02;3.10;;;2.80;;
77324;SDS011;66387;53.440;10.390;2023-07-13T10:48:30;4.25;;;2.08;;
77324;SDS011;66387;53.440;10.390;2023-07-13T10:50:59;6.22;;;2.38;;
77324;SDS011;66387;53.440;10.390;2023-07-13T10:53:29;4.22;;;2.50;;
77324;SDS011;66387;53.440;10.390;2023-07-13T10:58:34;3.25;;;2.42;;
77324;SDS011;66387;53.440;10.390;2023-07-13T11:03:29;4.50;;;2.35;;
77324;SDS011;66387;53.440;10.390;2023-07-13T11:08:35;3.10;;;2.33;;
77324;SDS011;66387;53.440;10.390;2023-07-13T11:11:02;4.85;;;2.30;;
77324;SDS011;66387;53.440;10.390;2023-07-13T11:18:46;3.53;;;2.22;;
77324;SDS011;66387;53.440;10.390;2023-07-13T11:21:19;8.30;;;2.83;;
77324;SDS011;66387;53.440;10.390;2023-07-13T11:24:19;4.40;;;2.88;;
77324;SDS011;66387;53.440;10.390;2023-07-13T11:31:40;4.03;;;3.00;;
77324;SDS011;66387;53.440;10.390;2023-07-13T11:34:10;4.60;;;2.67;;
77324;SDS011;66387;53.440;10.390;2023-07-13T11:36:42;4.97;;;3.58;;
77324;SDS011;66387;53.440;10.390;2023-07-13T11:39:19;6.00;;;2.72;;
77324;SDS011;66387;53.440;10.390;2023-07-13T11:41:59;4.70;;;2.63;;
77324;SDS011;66387;53.440;10.390;2023-07-13T11:44:28;5.60;;;2.75;;
77324;SDS011;66387;53.440;10.390;2023-07-13T11:46:56;3.28;;;2.00;;
77324;SDS011;66387;53.440;10.390;2023-07-13T11:49:28;6.28;;;2.70;;
77324;SDS011;66387;53.440;10.390;2023-07-13T11:51:55;5.28;;;2.60;;
77324;SDS011;66387;53.440;10.390;2023-07-13T11:56:53;5.30;;;2.38;;
77324;SDS011;66387;53.440;10.390;2023-07-13T11:59:20;6.25;;;2.88;;
77324;SDS011;66387;53.440;10.390;2023-07-13T12:01:47;3.50;;;2.40;;
77324;SDS011;66387;53.440;10.390;2023-07-13T12:06:57;4.25;;;2.65;;
77324;SDS011;66387;53.440;10.390;2023-07-13T12:09:34;3.38;;;2.28;;
77324;SDS011;66387;53.440;10.390;2023-07-13T12:12:01;4.43;;;2.70;;
77324;SDS011;66387;53.440;10.390;2023-07-13T12:14:27;5.15;;;3.22;;
77324;SDS011;66387;53.440;10.390;2023-07-13T12:16:52;4.10;;;2.20;;
77324;SDS011;66387;53.440;10.390;2023-07-13T12:19:20;4.00;;;2.83;;
77324;SDS011;66387;53.440;10.390;2023-07-13T12:21:47;4.60;;;2.38;;
77324;SDS011;66387;53.440;10.390;2023-07-13T12:24:14;4.90;;;2.50;;
77324;SDS011;66387;53.440;10.390;2023-07-13T12:26:44;5.03;;;2.10;;
77324;SDS011;66387;53.440;10.390;2023-07-13T12:29:16;4.78;;;2.28;;
77324;SDS011;66387;53.440;10.390;2023-07-13T12:31:44;4.53;;;2.72;;
77324;SDS011;66387;53.440;10.390;2023-07-13T12:34:12;4.68;;;2.47;;
77324;SDS011;66387;53.440;10.390;2023-07-13T12:36:40;5.78;;;2.30;;
77324;SDS011;66387;53.440;10.390;2023-07-13T12:39:54;6.18;;;2.30;;
77324;SDS011;66387;53.440;10.390;2023-07-13T12:44:48;3.97;;;2.40;;
77324;SDS011;66387;53.440;10.390;2023-07-13T12:47:14;4.55;;;2.42;;
77324;SDS011;66387;53.440;10.390;2023-07-13T12:49:42;3.75;;;2.28;;
77324;SDS011;66387;53.440;10.390;2023-07-13T12:52:17;3.72;;;2.50;;
77324;SDS011;66387;53.440;10.390;2023-07-13T12:54:58;8.40;;;3.30;;
77324;SDS011;66387;53.440;10.390;2023-07-13T12:57:29;6.75;;;3.03;;
77324;SDS011;66387;53.440;10.390;2023-07-13T12:59:55;4.30;;;2.13;;
77324;SDS011;66387;53.440;10.390;2023-07-13T13:02:28;6.85;;;3.72;;
77324;SDS011;66387;53.440;10.390;2023-07-13T13:04:56;7.15;;;2.67;;
77324;SDS011;66387;53.440;10.390;2023-07-13T13:07:23;3.75;;;2.63;;
77324;SDS011;66387;53.440;10.390;2023-07-13T13:09:49;4.93;;;2.50;;
77324;SDS011;66387;53.440;10.390;2023-07-13T13:12:14;4.68;;;2.95;;
77324;SDS011;66387;53.440;10.390;2023-07-13T13:14:42;3.42;;;2.53;;
77324;SDS011;66387;53.440;10.390;2023-07-13T13:17:15;4.55;;;3.22;;
77324;SDS011;66387;53.440;10.390;2023-07-13T13:19:44;4.70;;;2.65;;
77324;SDS011;66387;53.440;10.390;2023-07-13T13:22:10;5.45;;;2.70;;
77324;SDS011;66387;53.440;10.390;2023-07-13T13:24:35;5.13;;;2.70;;
77324;SDS011;66387;53.440;10.390;2023-07-13T13:27:01;3.40;;;2.60;;
77324;SDS011;66387;53.440;10.390;2023-07-13T13:29:27;3.85;;;3.10;;
77324;SDS011;66387;53.440;10.390;2023-07-13T13:31:53;6.20;;;3.30;;
77324;SDS011;66387;53.440;10.390;2023-07-13T13:34:20;4.65;;;2.80;;
77324;SDS011;66387;53.440;10.390;2023-07-13T13:36:48;5.72;;;2.88;;
77324;SDS011;66387;53.440;10.390;2023-07-13T13:39:17;6.72;;;3.03;;
77324;SDS011;66387;53.440;10.390;2023-07-13T13:41:43;5.13;;;3.63;;
77324;SDS011;66387;53.440;10.390;2023-07-13T13:44:09;4.25;;;2.90;;
77324;SDS011;66387;53.440;10.390;2023-07-13T13:46:34;5.32;;;3.13;;
77324;SDS011;66387;53.440;10.390;2023-07-13T13:49:00;5.05;;;3.30;;
77324;SDS011;66387;53.440;10.390;2023-07-13T13:51:26;3.92;;;2.40;;
77324;SDS011;66387;53.440;10.390;2023-07-13T13:53:51;4.88;;;3.17;;
77324;SDS011;66387;53.440;10.390;2023-07-13T13:56:18;6.38;;;3.10;;
77324;SDS011;66387;53.440;10.390;2023-07-13T13:58:44;4.50;;;2.65;;
77324;SDS011;66387;53.440;10.390;2023-07-13T14:01:16;3.83;;;2.53;;
77324;SDS011;66387;53.440;10.390;2023-07-13T14:03:44;4.28;;;3.00;;
77324;SDS011;66387;53.440;10.390;2023-07-13T14:06:11;3.58;;;2.28;;
77324;SDS011;66387;53.440;10.390;2023-07-13T14:08:38;5.72;;;2.85;;
77324;SDS011;66387;53.440;10.390;2023-07-13T14:11:03;4.55;;;2.65;;
77324;SDS011;66387;53.440;10.390;2023-07-13T14:13:31;4.07;;;2.63;;
77324;SDS011;66387;53.440;10.390;2023-07-13T14:16:01;4.72;;;2.40;;
77324;SDS011;66387;53.440;10.390;2023-07-13T14:18:27;3.95;;;2.58;;
77324;SDS011;66387;53.440;10.390;2023-07-13T14:20:52;3.15;;;2.22;;
77324;SDS011;66387;53.440;10.390;2023-07-13T14:23:18;4.90;;;3.00;;
77324;SDS011;66387;53.440;10.390;2023-07-13T14:25:44;3.42;;;2.50;;
77324;SDS011;66387;53.440;10.390;2023-07-13T14:28:20;4.43;;;2.42;;
77324;SDS011;66387;53.440;10.390;2023-07-13T14:30:50;3.28;;;2.20;;
77324;SDS011;66387;53.440;10.390;2023-07-13T14:33:16;4.80;;;2.55;;
77324;SDS011;66387;53.440;10.390;2023-07-13T14:35:42;5.03;;;2.40;;
77324;SDS011;66387;53.440;10.390;2023-07-13T14:38:11;4.00;;;2.33;;
77324;SDS011;66387;53.440;10.390;2023-07-13T14:40:40;2.85;;;2.50;;
77324;SDS011;66387;53.440;10.390;2023-07-13T14:43:08;2.65;;;2.38;;
77324;SDS011;66387;53.440;10.390;2023-07-13T14:45:42;3.17;;;2.20;;
77324;SDS011;66387;53.440;10.390;2023-07-13T14:48:18;4.97;;;3.25;;
77324;SDS011;66387;53.440;10.390;2023-07-13T14:50:45;3.67;;;3.38;;
77324;SDS011;66387;53.440;10.390;2023-07-13T14:53:11;3.78;;;2.65;;
77324;SDS011;66387;53.440;10.390;2023-07-13T14:55:37;2.85;;;2.33;;
77324;SDS011;66387;53.440;10.390;2023-07-13T14:58:03;2.78;;;2.30;;
77324;SDS011;66387;53.440;10.390;2023-07-13T15:00:28;4.07;;;2.70;;
77324;SDS011;66387;53.440;10.390;2023-07-13T15:02:54;4.40;;;2.33;;
77324;SDS011;66387;53.440;10.390;2023-07-13T15:05:23;3.38;;;2.40;;
77324;SDS011;66387;53.440;10.390;2023-07-13T15:07:50;2.60;;;2.20;;
77324;SDS011;66387;53.440;10.390;2023-07-13T15:10:25;3.25;;;2.55;;
77324;SDS011;66387;53.440;10.390;2023-07-13T15:13:01;3.10;;;2.63;;
77324;SDS011;66387;53.440;10.390;2023-07-13T15:15:38;8.30;;;3.03;;
77324;SDS011;66387;53.440;10.390;2023-07-13T15:18:09;4.50;;;2.40;;
77324;SDS011;66387;53.440;10.390;2023-07-13T15:20:36;6.00;;;2.50;;
77324;SDS011;66387;53.440;10.390;2023-07-13T15:23:01;2.42;;;2.13;;